aviador You're here:

EPKK Decoded Metar

KRAKOW in POLAND
Report Time2018-05-23 20:30:00
UTC Time2018-05-23 20:44:30
Flight Rules vfr VFR
Wind030° at 07 kt
W.Decomp.*RWY 07: 5.1 kt HW 4.8 kt LCW
W.Rank030° ranks 13
Current wind is above 030° avg. (4.7)
Visibility9999 m
Phenomena:N/A
Clouds:N/A
Expected CloudBase > 1,200 ft AGL from Temp-Dew spread
CeilingNone
Temp16°C (ISA +3)
Dew Point13°C (83% RH)
AAT14.4°C
QNH1021 hPa
Density Alt1,010 ft
Elevation778 ft
Report Wrong Elevation
Raw Report
EPKK 232030Z 03007KT CAVOK 16/13 Q1021=

Extra information for EPKK:More info

Metar Taf Metar & Taf Last 4 Metars F.Rules Stats Wind Profile Meteogram Temp Stats Airport Information Weather charts Add Link Nearby VenuesMetar ALERT Operation Metar Decoded Social comments